createdAt,value
2023-03-07T00:02:01.353Z,95242.41
2023-03-07T00:04:32.000Z,95242.59
2023-03-07T00:07:00.052Z,95247.34
2023-03-07T00:09:33.263Z,95251.94
2023-03-07T00:12:01.167Z,95212.81
2023-03-07T00:14:35.077Z,95250.94
2023-03-07T00:17:09.650Z,95243.44
2023-03-07T00:19:47.747Z,95252.63
2023-03-07T00:22:18.355Z,95243.53
2023-03-07T00:24:51.936Z,95244.59
2023-03-07T00:27:21.171Z,95244.16
2023-03-07T00:29:51.096Z,95203.66
2023-03-07T00:32:19.173Z,95228.84
2023-03-07T00:34:49.566Z,95227.91
2023-03-07T00:37:17.730Z,95223.78
2023-03-07T00:39:52.184Z,95214.16
2023-03-07T00:42:23.013Z,95215.31
2023-03-07T00:44:52.273Z,95210.34
2023-03-07T00:47:21.161Z,95204.25
2023-03-07T00:49:49.006Z,95187.00
2023-03-07T00:52:16.900Z,95127.34
2023-03-07T00:54:44.972Z,95206.13
2023-03-07T00:57:12.738Z,95202.22
2023-03-07T00:59:43.165Z,95201.00
2023-03-07T01:02:12.306Z,95209.97
2023-03-07T01:04:40.131Z,95210.78
2023-03-07T01:07:13.246Z,95113.50
2023-03-07T01:09:41.119Z,95210.25
2023-03-07T01:12:09.509Z,95182.78
2023-03-07T01:14:37.333Z,95184.06
2023-03-07T01:17:10.827Z,95183.03
2023-03-07T01:19:42.684Z,95194.88
2023-03-07T01:22:13.233Z,95198.88
2023-03-07T01:24:45.317Z,95198.41
2023-03-07T01:27:13.519Z,95191.50
2023-03-07T01:29:50.480Z,95193.03
2023-03-07T01:32:18.367Z,95184.78
2023-03-07T01:35:00.432Z,95194.63
2023-03-07T01:37:28.407Z,95188.94
2023-03-07T01:39:58.834Z,95188.56
2023-03-07T01:42:31.291Z,95183.28
2023-03-07T01:45:06.823Z,95170.19
2023-03-07T01:47:37.482Z,95173.66
2023-03-07T01:50:10.040Z,95150.41
2023-03-07T01:52:43.754Z,95175.44
2023-03-07T01:55:14.583Z,95177.00
2023-03-07T01:57:43.495Z,95179.25
2023-03-07T02:00:20.876Z,95180.63
2023-03-07T02:02:52.251Z,95142.03
2023-03-07T02:05:30.512Z,95168.31
2023-03-07T02:08:02.164Z,95147.41
2023-03-07T02:10:30.450Z,95162.78
2023-03-07T02:12:58.415Z,95160.19
2023-03-07T02:15:27.560Z,95184.75
2023-03-07T02:17:55.818Z,95157.53
2023-03-07T02:20:32.898Z,95157.69
2023-03-07T02:23:04.507Z,95146.50
2023-03-07T02:25:38.206Z,95057.56
2023-03-07T02:28:08.602Z,95141.75
2023-03-07T02:30:40.698Z,95133.63
2023-03-07T02:33:11.263Z,95134.16
2023-03-07T02:35:46.256Z,95059.06
2023-03-07T02:38:17.962Z,95167.16
2023-03-07T02:40:47.838Z,95117.38
2023-03-07T02:43:17.418Z,95090.09
2023-03-07T02:46:01.154Z,95112.66
2023-03-07T02:48:29.274Z,95114.75
2023-03-07T02:50:57.112Z,95094.53
2023-03-07T02:53:25.142Z,95102.00
2023-03-07T02:55:52.882Z,95051.97
2023-03-07T02:58:23.209Z,95116.59
2023-03-07T03:00:51.071Z,94993.91
2023-03-07T03:03:32.367Z,95116.34
2023-03-07T03:06:01.776Z,95112.44
2023-03-07T03:08:32.084Z,95115.47
2023-03-07T03:11:00.066Z,95099.84
2023-03-07T03:13:29.375Z,95090.31
2023-03-07T03:15:59.958Z,95120.16
2023-03-07T03:18:29.557Z,95097.66
2023-03-07T03:20:57.485Z,95112.41
2023-03-07T03:23:34.349Z,95109.72
2023-03-07T03:26:05.191Z,95112.59
2023-03-07T03:28:41.317Z,95061.94
2023-03-07T03:31:12.041Z,95088.53
2023-03-07T03:33:41.368Z,95109.84
2023-03-07T03:36:14.323Z,95118.97
2023-03-07T03:38:44.667Z,95115.06
2023-03-07T03:41:15.734Z,95116.59
2023-03-07T03:43:49.880Z,95106.53
2023-03-07T03:46:19.785Z,94883.78
2023-03-07T03:48:54.582Z,95102.19
2023-03-07T03:51:23.570Z,95114.09
2023-03-07T03:53:59.931Z,95048.94
2023-03-07T03:56:28.790Z,95096.63
2023-03-07T03:58:58.805Z,95108.66
2023-03-07T04:01:31.131Z,95095.34
2023-03-07T04:03:59.475Z,95056.22
2023-03-07T04:06:29.063Z,95058.84
2023-03-07T04:08:59.473Z,95046.94
2023-03-07T04:11:27.963Z,95099.47
2023-03-07T04:13:58.558Z,95096.31
2023-03-07T04:16:32.278Z,95096.34
2023-03-07T04:19:02.550Z,95087.72
2023-03-07T04:21:30.398Z,95081.94
2023-03-07T04:23:58.488Z,95086.91
2023-03-07T04:26:28.325Z,95082.19
2023-03-07T04:29:01.590Z,95083.50
2023-03-07T04:31:29.915Z,95079.59
2023-03-07T04:33:58.010Z,95072.75
2023-03-07T04:36:28.755Z,95069.00
2023-03-07T04:38:56.680Z,95071.72
2023-03-07T04:41:29.193Z,95070.13
2023-03-07T04:43:58.424Z,95076.44
2023-03-07T04:46:29.095Z,95071.69
2023-03-07T04:48:59.921Z,95065.09
2023-03-07T04:51:32.151Z,95042.34
2023-03-07T04:54:00.444Z,95067.00
2023-03-07T04:56:34.211Z,95069.50
2023-03-07T04:59:06.415Z,95074.84
2023-03-07T05:01:34.666Z,95065.25
2023-03-07T05:04:02.875Z,95065.28
2023-03-07T05:06:37.704Z,95019.97
2023-03-07T05:09:06.029Z,95058.53
2023-03-07T05:11:34.368Z,95055.16
2023-03-07T05:14:05.156Z,95058.94
2023-03-07T05:16:33.674Z,95048.50
2023-03-07T05:19:06.617Z,95025.44
2023-03-07T05:21:37.920Z,95023.72
2023-03-07T05:24:07.447Z,95010.34
2023-03-07T05:26:35.358Z,95039.72
2023-03-07T05:29:10.590Z,95035.53
2023-03-07T05:31:38.642Z,95031.06
2023-03-07T05:34:06.513Z,95042.09
2023-03-07T05:36:35.982Z,95046.00
2023-03-07T05:39:05.067Z,95039.47
2023-03-07T05:41:43.753Z,95040.25
2023-03-07T05:44:16.169Z,95024.50
2023-03-07T05:46:46.832Z,95043.91
2023-03-07T05:49:18.158Z,95046.53
2023-03-07T05:51:45.989Z,95006.97
2023-03-07T05:54:16.167Z,95037.03
2023-03-07T05:56:44.759Z,95044.19
2023-03-07T05:59:26.255Z,95041.03
2023-03-07T06:02:00.116Z,94991.72
2023-03-07T06:04:30.280Z,95005.19
2023-03-07T06:07:00.727Z,95031.03
2023-03-07T06:09:31.148Z,95029.47
2023-03-07T06:12:07.361Z,95026.06
2023-03-07T06:14:36.885Z,95023.44
2023-03-07T06:17:05.034Z,95025.78
2023-03-07T06:19:35.336Z,95025.28
2023-03-07T06:22:04.890Z,95020.56
2023-03-07T06:24:32.992Z,95023.66
2023-03-07T06:27:01.350Z,95022.75
2023-03-07T06:29:35.265Z,95022.34
2023-03-07T06:32:07.871Z,95026.31
2023-03-07T06:34:35.966Z,95022.38
2023-03-07T06:37:04.441Z,95028.63
2023-03-07T06:39:32.456Z,95023.06
2023-03-07T06:42:02.782Z,94971.00
2023-03-07T06:44:31.261Z,95025.28
2023-03-07T06:46:59.355Z,94895.03
2023-03-07T06:49:28.812Z,95004.50
2023-03-07T06:51:58.413Z,95015.25
2023-03-07T06:54:26.275Z,95041.03
2023-03-07T06:56:55.172Z,95039.97
2023-03-07T06:59:23.036Z,95033.63
2023-03-07T07:01:54.201Z,94972.81
2023-03-07T07:04:43.124Z,95010.00
2023-03-07T07:07:12.466Z,95036.94
2023-03-07T07:09:42.480Z,94942.69
2023-03-07T07:12:10.870Z,95032.91
2023-03-07T07:14:42.236Z,94999.34
2023-03-07T07:17:11.464Z,95033.94
2023-03-07T07:19:41.447Z,94958.94
2023-03-07T07:22:12.094Z,95022.41
2023-03-07T07:24:42.823Z,95020.31
2023-03-07T07:27:12.573Z,95024.50
2023-03-07T07:29:40.802Z,95022.16
2023-03-07T07:32:14.936Z,94947.16
2023-03-07T07:34:46.997Z,95037.03
2023-03-07T07:37:20.389Z,95024.88
2023-03-07T07:39:52.596Z,95022.09
2023-03-07T07:42:20.635Z,94994.84
2023-03-07T07:44:49.112Z,95007.13
2023-03-07T07:47:28.492Z,95020.31
2023-03-07T07:49:56.279Z,95026.81
2023-03-07T07:52:24.162Z,94996.13
2023-03-07T07:54:55.548Z,94932.75
2023-03-07T07:57:23.500Z,95015.06
2023-03-07T07:59:56.824Z,95016.09
2023-03-07T08:02:25.529Z,95049.81
2023-03-07T08:04:57.611Z,95004.78
2023-03-07T08:07:25.718Z,95010.81
2023-03-07T08:09:56.855Z,95007.06
2023-03-07T08:12:27.065Z,95015.50
2023-03-07T08:14:59.226Z,95009.69
2023-03-07T08:17:27.183Z,95001.28
2023-03-07T08:19:55.044Z,95000.75
2023-03-07T08:22:25.430Z,94988.00
2023-03-07T08:24:54.636Z,94984.75
2023-03-07T08:27:22.700Z,95002.47
2023-03-07T08:29:51.594Z,94999.31
2023-03-07T08:32:19.478Z,94995.97
2023-03-07T08:34:53.851Z,94957.34
2023-03-07T08:37:24.862Z,94982.34
2023-03-07T08:39:55.937Z,94977.28
2023-03-07T08:42:28.415Z,94989.81
2023-03-07T08:44:56.544Z,94983.06
2023-03-07T08:47:24.576Z,94984.16
2023-03-07T08:49:52.501Z,94989.00
2023-03-07T08:52:20.768Z,94967.78
2023-03-07T08:54:51.097Z,94955.22
2023-03-07T08:57:20.353Z,94970.47
2023-03-07T08:59:51.445Z,94977.75
2023-03-07T09:02:19.423Z,94907.06
2023-03-07T09:04:47.369Z,94965.72
2023-03-07T09:07:15.529Z,94973.25
2023-03-07T09:09:43.600Z,94970.84
2023-03-07T09:12:14.984Z,94869.97
2023-03-07T09:14:44.352Z,94963.56
2023-03-07T09:17:14.387Z,94920.31
2023-03-07T09:19:43.170Z,94948.81
2023-03-07T09:22:14.296Z,94932.25
2023-03-07T09:24:42.270Z,94954.72
2023-03-07T09:27:11.484Z,94957.19
2023-03-07T09:29:42.446Z,94960.56
2023-03-07T09:32:11.884Z,94922.94
2023-03-07T09:34:40.309Z,94955.88
2023-03-07T09:37:18.881Z,94943.41
2023-03-07T09:39:49.677Z,94957.63
2023-03-07T09:42:23.404Z,94964.72
2023-03-07T09:45:10.510Z,94957.50
2023-03-07T09:47:57.887Z,94916.72
2023-03-07T09:50:32.959Z,94951.03
2023-03-07T09:53:03.378Z,94948.53
2023-03-07T09:55:32.388Z,94938.09
2023-03-07T09:58:04.130Z,94938.03
2023-03-07T10:00:35.427Z,94933.19
2023-03-07T10:03:13.237Z,94945.47
2023-03-07T10:05:44.699Z,94943.41
2023-03-07T10:08:15.438Z,94934.97
2023-03-07T10:10:47.576Z,94696.06
2023-03-07T10:13:23.868Z,94932.50
2023-03-07T10:15:54.165Z,94927.09
2023-03-07T10:18:46.291Z,94928.38
2023-03-07T10:21:20.932Z,94913.16
2023-03-07T10:24:21.122Z,94924.44
2023-03-07T10:26:53.020Z,94969.03
2023-03-07T10:29:26.378Z,94925.78
2023-03-07T10:31:57.296Z,94909.19
2023-03-07T10:34:32.394Z,94917.63
2023-03-07T10:37:14.277Z,94866.16
2023-03-07T10:39:46.753Z,94865.03
2023-03-07T10:42:17.744Z,94908.31
2023-03-07T10:44:48.910Z,94859.84
2023-03-07T10:47:25.355Z,94909.13
2023-03-07T10:49:57.976Z,94894.16
2023-03-07T10:52:33.465Z,94911.06
2023-03-07T10:55:35.871Z,94915.78
2023-03-07T10:58:21.221Z,94919.78
2023-03-07T11:01:30.964Z,94887.59
2023-03-07T11:04:01.444Z,94900.81
2023-03-07T11:06:37.066Z,94884.28
2023-03-07T11:09:16.860Z,94896.06
2023-03-07T11:11:58.974Z,94893.16
2023-03-07T11:14:28.295Z,94888.06
2023-03-07T11:16:57.691Z,94884.53
2023-03-07T11:19:35.402Z,94884.72
2023-03-07T11:22:19.693Z,94892.25
2023-03-07T11:24:58.062Z,94908.88
2023-03-07T11:27:31.986Z,94879.03
2023-03-07T11:30:23.073Z,94887.88
2023-03-07T11:33:05.969Z,94885.03
2023-03-07T11:36:00.153Z,94893.16
2023-03-07T11:38:46.093Z,94886.13
2023-03-07T11:41:18.919Z,94901.25
2023-03-07T11:43:55.645Z,94895.38
2023-03-07T11:46:33.489Z,94871.84
2023-03-07T11:49:17.070Z,94847.31
2023-03-07T11:51:58.406Z,94878.31
2023-03-07T11:54:35.521Z,94881.81
2023-03-07T11:57:09.330Z,94872.91
2023-03-07T11:59:55.540Z,94876.75
2023-03-07T12:02:52.051Z,94868.47
2023-03-07T12:05:34.582Z,94859.66
2023-03-07T12:08:15.885Z,94856.34
2023-03-07T12:10:52.552Z,94854.00
2023-03-07T12:13:32.556Z,94847.59
2023-03-07T12:16:08.969Z,94847.13
2023-03-07T12:18:56.011Z,94822.44
2023-03-07T12:21:35.850Z,94838.25
2023-03-07T12:24:13.076Z,94815.25
2023-03-07T12:26:51.048Z,94801.88
2023-03-07T12:29:25.398Z,94818.19
2023-03-07T12:31:55.402Z,94802.78
2023-03-07T12:34:34.044Z,94804.94
2023-03-07T12:37:05.988Z,94797.16
2023-03-07T12:39:46.153Z,94792.13
2023-03-07T12:42:27.908Z,94745.13
2023-03-07T12:45:02.556Z,94774.50
2023-03-07T12:47:34.438Z,94716.19
2023-03-07T12:50:06.284Z,94772.28
2023-03-07T12:52:43.580Z,94501.25
2023-03-07T12:55:21.586Z,94755.41
2023-03-07T12:57:59.020Z,94740.25
2023-03-07T13:00:31.176Z,94738.25
2023-03-07T13:03:02.427Z,94739.84
2023-03-07T13:05:38.336Z,94746.25
2023-03-07T13:08:12.802Z,94740.81
2023-03-07T13:10:42.985Z,94699.91
2023-03-07T13:13:44.263Z,94737.66
2023-03-07T13:16:15.526Z,94742.59
2023-03-07T13:18:45.426Z,94719.72
2023-03-07T13:21:34.732Z,94741.72
2023-03-07T13:24:34.954Z,94742.13
2023-03-07T13:27:08.267Z,94727.25
2023-03-07T13:30:18.272Z,94741.03
2023-03-07T13:33:05.254Z,94745.34
2023-03-07T13:35:54.565Z,94740.97
2023-03-07T13:38:34.744Z,94734.31
2023-03-07T13:41:04.678Z,94740.47
2023-03-07T13:44:00.010Z,94748.66
2023-03-07T13:47:03.182Z,94742.25
2023-03-07T13:49:56.692Z,94755.41
2023-03-07T13:52:46.239Z,94753.06
2023-03-07T13:55:40.301Z,94729.84
2023-03-07T13:58:21.918Z,94748.78
2023-03-07T14:00:57.265Z,94761.00
2023-03-07T14:03:30.307Z,94788.63
2023-03-07T14:06:04.679Z,94753.56
2023-03-07T14:08:38.791Z,94754.50
2023-03-07T14:11:08.779Z,94756.69
2023-03-07T14:13:52.986Z,94754.13
2023-03-07T14:16:42.265Z,94750.13
2023-03-07T14:19:22.463Z,94712.38
2023-03-07T14:22:00.970Z,94757.78
2023-03-07T14:24:42.052Z,94709.75
2023-03-07T14:27:14.124Z,94748.22
2023-03-07T14:29:49.973Z,94740.53
2023-03-07T14:32:29.158Z,94765.72
2023-03-07T14:35:01.361Z,94720.16
2023-03-07T14:37:34.427Z,94760.25
2023-03-07T14:40:26.880Z,94765.34
2023-03-07T14:43:12.081Z,94767.25
2023-03-07T14:45:43.190Z,94776.66
2023-03-07T14:48:29.412Z,94767.69
2023-03-07T14:50:59.086Z,94718.13
2023-03-07T14:53:29.638Z,94763.22
2023-03-07T14:55:58.804Z,94761.88
2023-03-07T14:58:32.390Z,94755.03
2023-03-07T15:01:01.601Z,94747.91
2023-03-07T15:03:33.551Z,94737.75
2023-03-07T15:06:03.658Z,94751.28
2023-03-07T15:08:38.122Z,94754.81
2023-03-07T15:11:14.405Z,94761.75
2023-03-07T15:13:49.017Z,94760.31
2023-03-07T15:16:26.362Z,94756.88
2023-03-07T15:18:58.588Z,94755.13
2023-03-07T15:21:33.021Z,94675.88
2023-03-07T15:24:07.805Z,94748.97
2023-03-07T15:26:39.123Z,94676.25
2023-03-07T15:29:10.773Z,94709.75
2023-03-07T15:31:55.539Z,94765.69
2023-03-07T15:34:29.647Z,94750.19
2023-03-07T15:37:20.461Z,94761.19
2023-03-07T15:40:00.692Z,94761.88
2023-03-07T15:42:30.933Z,94775.59
2023-03-07T15:45:05.730Z,94764.78
2023-03-07T15:47:39.735Z,94734.38
2023-03-07T15:50:20.001Z,94768.94
2023-03-07T15:52:55.232Z,94775.09
2023-03-07T15:55:27.686Z,94765.50
2023-03-07T15:57:57.899Z,94750.28
2023-03-07T16:00:38.745Z,94766.56
2023-03-07T16:03:25.587Z,94751.53
2023-03-07T16:05:59.528Z,94755.72
2023-03-07T16:08:27.920Z,94771.09
2023-03-07T16:11:01.952Z,94770.91
2023-03-07T16:13:31.770Z,94774.31
2023-03-07T16:16:09.152Z,94764.66
2023-03-07T16:18:37.142Z,94764.47
2023-03-07T16:21:05.405Z,94775.34
2023-03-07T16:23:34.213Z,94780.16
2023-03-07T16:26:15.402Z,94780.81
2023-03-07T16:28:44.364Z,94775.53
2023-03-07T16:31:13.024Z,94782.25
2023-03-07T16:33:41.396Z,94790.19
2023-03-07T16:36:10.334Z,94775.75
2023-03-07T16:38:38.196Z,94783.78
2023-03-07T16:41:13.364Z,94784.13
2023-03-07T16:43:45.169Z,94689.63
2023-03-07T16:46:17.907Z,94780.47
2023-03-07T16:48:49.238Z,94785.88
2023-03-07T16:51:18.277Z,94773.50
2023-03-07T16:53:48.896Z,94802.88
2023-03-07T16:56:22.213Z,94555.41
2023-03-07T16:58:50.573Z,94799.53
2023-03-07T17:01:23.758Z,94770.88
2023-03-07T17:03:56.370Z,94789.56
2023-03-07T17:06:37.190Z,94783.00
2023-03-07T17:09:06.621Z,94766.19
2023-03-07T17:11:37.009Z,94803.38
2023-03-07T17:14:07.141Z,94797.03
2023-03-07T17:16:37.283Z,94808.84
2023-03-07T17:19:05.123Z,94770.94
2023-03-07T17:21:32.913Z,94776.13
2023-03-07T17:24:04.608Z,94822.78
2023-03-07T17:26:39.143Z,94795.06
2023-03-07T17:29:09.983Z,94825.84
2023-03-07T17:31:49.999Z,94833.94
2023-03-07T17:34:23.372Z,94832.91
2023-03-07T17:37:10.044Z,94837.00
2023-03-07T17:39:40.846Z,94827.53
2023-03-07T17:42:10.431Z,94612.66
2023-03-07T17:44:39.402Z,94837.19
2023-03-07T17:47:07.494Z,94840.31
2023-03-07T17:49:38.642Z,94843.34
2023-03-07T17:52:07.642Z,94825.44
2023-03-07T17:54:38.432Z,94854.38
2023-03-07T17:57:10.752Z,94852.78
2023-03-07T17:59:41.103Z,94829.81
2023-03-07T18:02:16.524Z,94867.59
2023-03-07T18:04:47.430Z,94846.94
2023-03-07T18:07:18.270Z,94879.47
2023-03-07T18:09:53.631Z,94882.53
2023-03-07T18:12:30.804Z,94841.63
2023-03-07T18:15:02.319Z,94872.97
2023-03-07T18:17:41.794Z,94869.06
2023-03-07T18:20:17.022Z,94861.75
2023-03-07T18:22:44.979Z,94856.66
2023-03-07T18:25:17.685Z,94864.09
2023-03-07T18:27:49.838Z,94867.59
2023-03-07T18:30:19.380Z,94875.78
2023-03-07T18:32:49.406Z,94875.38
2023-03-07T18:35:17.306Z,94886.28
2023-03-07T18:37:47.760Z,94888.13
2023-03-07T18:40:22.041Z,94883.41
2023-03-07T18:43:03.585Z,94894.97
2023-03-07T18:45:36.938Z,94893.47
2023-03-07T18:48:05.167Z,94896.81
2023-03-07T18:50:33.127Z,94898.34
2023-03-07T18:53:03.980Z,94896.19
2023-03-07T18:55:37.313Z,94902.25
2023-03-07T18:58:05.277Z,94903.31
2023-03-07T19:00:35.145Z,94877.34
2023-03-07T19:03:04.466Z,94890.78
2023-03-07T19:05:41.343Z,94892.38
2023-03-07T19:08:12.645Z,94894.91
2023-03-07T19:10:40.674Z,94864.41
2023-03-07T19:13:08.875Z,94896.34
2023-03-07T19:16:01.457Z,94713.06
2023-03-07T19:18:32.371Z,94870.13
2023-03-07T19:21:03.079Z,94767.16
2023-03-07T19:23:35.961Z,94900.03
2023-03-07T19:26:06.574Z,94889.63
2023-03-07T19:28:34.985Z,94912.69
2023-03-07T19:31:19.352Z,94922.66
2023-03-07T19:33:52.416Z,94919.47
2023-03-07T19:36:27.077Z,94926.34
2023-03-07T19:38:59.112Z,94937.88
2023-03-07T19:41:31.490Z,94933.88
2023-03-07T19:44:00.958Z,94937.22
2023-03-07T19:46:29.277Z,94945.56
2023-03-07T19:49:02.900Z,94936.69
2023-03-07T19:51:30.854Z,94953.41
2023-03-07T19:53:59.868Z,94901.22
2023-03-07T19:56:29.465Z,94938.06
2023-03-07T19:58:57.823Z,94942.44
2023-03-07T20:01:26.003Z,94995.47
2023-03-07T20:03:58.325Z,94940.59
2023-03-07T20:06:31.842Z,94914.00
2023-03-07T20:09:00.993Z,94943.34
2023-03-07T20:11:30.778Z,94947.53
2023-03-07T20:14:00.908Z,94939.94
2023-03-07T20:16:38.694Z,94933.59
2023-03-07T20:19:11.786Z,94934.41
2023-03-07T20:21:42.431Z,94929.50
2023-03-07T20:24:10.495Z,94921.38
2023-03-07T20:26:41.206Z,94935.78
2023-03-07T20:29:11.380Z,94941.84
2023-03-07T20:31:40.674Z,94938.25
2023-03-07T20:34:09.112Z,94922.84
2023-03-07T20:36:40.148Z,94940.16
2023-03-07T20:39:14.368Z,94932.34
2023-03-07T20:41:42.953Z,94944.50
2023-03-07T20:44:12.801Z,94940.81
2023-03-07T20:46:41.378Z,94903.03
2023-03-07T20:49:09.393Z,94937.25
2023-03-07T20:51:37.882Z,94967.25
2023-03-07T20:54:11.040Z,94967.50
2023-03-07T20:56:40.858Z,94962.53
2023-03-07T20:59:10.278Z,94965.13
2023-03-07T21:01:39.012Z,94949.94
2023-03-07T21:04:12.438Z,94952.03
2023-03-07T21:06:42.004Z,94929.84
2023-03-07T21:09:11.109Z,94908.34
2023-03-07T21:11:46.072Z,94940.31
2023-03-07T21:14:14.417Z,94708.38
2023-03-07T21:16:48.119Z,94943.63
2023-03-07T21:19:16.421Z,94956.25
2023-03-07T21:21:51.691Z,94948.34
2023-03-07T21:24:32.390Z,94870.81
2023-03-07T21:27:02.305Z,94962.56
2023-03-07T21:29:33.373Z,94971.13
2023-03-07T21:32:04.095Z,94960.81
2023-03-07T21:34:36.656Z,95009.00
2023-03-07T21:37:05.767Z,94976.41
2023-03-07T21:39:36.134Z,94977.25
2023-03-07T21:42:14.702Z,94970.13
2023-03-07T21:44:45.547Z,94980.59
2023-03-07T21:47:23.901Z,94983.41
2023-03-07T21:49:52.886Z,94966.22
2023-03-07T21:52:20.991Z,94983.81
2023-03-07T21:54:51.347Z,94975.91
2023-03-07T21:57:27.369Z,94981.97
2023-03-07T22:00:17.208Z,94995.78
2023-03-07T22:02:45.360Z,94990.88
2023-03-07T22:05:13.599Z,94998.13
2023-03-07T22:07:44.366Z,95008.47
2023-03-07T22:10:20.403Z,94991.31
2023-03-07T22:12:52.767Z,95008.03
2023-03-07T22:15:20.810Z,94996.25
2023-03-07T22:17:51.453Z,94996.75
2023-03-07T22:20:19.763Z,94952.47
2023-03-07T22:22:56.293Z,94992.28
2023-03-07T22:25:27.216Z,95046.66
2023-03-07T22:28:16.677Z,95011.31
2023-03-07T22:30:45.752Z,95004.28
2023-03-07T22:33:14.006Z,95004.47
2023-03-07T22:35:49.196Z,95026.41
2023-03-07T22:38:20.936Z,95013.63
2023-03-07T22:40:50.158Z,95013.78
2023-03-07T22:43:19.719Z,94999.88
2023-03-07T22:45:52.058Z,95004.47
2023-03-07T22:48:23.400Z,94697.34
2023-03-07T22:50:53.789Z,94986.63
2023-03-07T22:53:24.860Z,95004.56
2023-03-07T22:55:55.216Z,95000.81
2023-03-07T22:58:24.827Z,95017.41
2023-03-07T23:00:55.981Z,95001.88
2023-03-07T23:03:24.399Z,95042.59
2023-03-07T23:05:52.853Z,95029.22
2023-03-07T23:08:29.964Z,94947.97
2023-03-07T23:11:01.944Z,95001.19
2023-03-07T23:13:34.053Z,94985.44
2023-03-07T23:16:05.057Z,95010.88
2023-03-07T23:18:38.702Z,95013.78
2023-03-07T23:21:16.913Z,95014.03
2023-03-07T23:23:45.226Z,95017.94
2023-03-07T23:26:18.409Z,95017.69
2023-03-07T23:28:48.635Z,95017.69
2023-03-07T23:31:20.793Z,95016.13
2023-03-07T23:34:00.429Z,94985.72
2023-03-07T23:36:29.452Z,94955.03
2023-03-07T23:38:57.934Z,94984.13
2023-03-07T23:41:28.742Z,94915.44
2023-03-07T23:43:59.798Z,95025.03
2023-03-07T23:46:28.200Z,95022.41
2023-03-07T23:49:02.139Z,95015.06
2023-03-07T23:51:30.021Z,95028.72
2023-03-07T23:54:03.185Z,95032.38
2023-03-07T23:56:31.152Z,95033.69
2023-03-07T23:59:03.020Z,95042.09
